Havbugvin — XPYL — position and weather

sailwx.info

Track history (hours):
 
Tides and Currents Weather Stations Pressure Air Temp Water Temp Dewpoint Dewpoint Depression Visibility Wind Speed Wind Dir Waves Ship Positions

Havbugvin

Last reported at 2014-Sep-19 00:32 UTC. Time now 2014-Sep-23 22:22 UTC.
Position N 61°17' W 006°30'.

Length 38 m.

Type: Fishing. MMSI: 231181000.

Date/timePositionNaut miles runAvg speedWind from/ knotsBaromVisibWave heightAir tempDewpointWater temp
2014-Sep-19 00:32N 61°17' W 006°30'9 8.7
2014-Sep-18 23:33N 61°25' W 006°36'11 3.5
2014-Sep-18 20:33N 61°35' W 006°41'10 9.6
2014-Sep-18 19:33N 61°45' W 006°37'10 9.7
2014-Sep-18 18:33N 61°54' W 006°39'7 7.0
2014-Sep-18 17:33N 62°00' W 006°46'0 0.0
2014-Sep-18 16:33N 62°00' W 006°46'0 0.0
2014-Sep-18 15:33N 62°00' W 006°46'0 0.0
2014-Sep-18 14:33N 62°00' W 006°46'0 0.0
2014-Sep-18 13:33N 62°00' W 006°46'0 0.0
2014-Sep-18 12:33N 62°00' W 006°46'0 0.0
2014-Sep-18 11:33N 62°00' W 006°46'0 0.0
2014-Sep-18 10:33N 62°00' W 006°46'0 0.0
2014-Sep-18 09:33N 62°00' W 006°46'0 0.0
2014-Sep-18 08:33N 62°00' W 006°46'0 0.0
2014-Sep-18 07:34N 62°00' W 006°46'0 0.0
2014-Sep-18 06:33N 62°00' W 006°46'0 0.0
2014-Sep-18 05:33N 62°00' W 006°46'0 0.0
2014-Sep-18 04:33N 62°00' W 006°46'0 0.0
2014-Sep-18 03:33N 62°00' W 006°46'0 0.0
2014-Sep-18 02:33N 62°00' W 006°46'0 0.0
2014-Sep-18 01:33N 62°00' W 006°46'0 0.0
2014-Sep-18 00:33N 62°00' W 006°46'0 0.0
2014-Sep-17 23:34N 62°00' W 006°46'0 0.0
2014-Sep-17 22:33N 62°00' W 006°46'0 0.0
2014-Sep-17 21:33N 62°00' W 006°46'0 0.0
2014-Sep-17 20:33N 62°00' W 006°46'0 0.0
2014-Sep-17 19:34N 62°00' W 006°46'0 0.0
2014-Sep-17 18:33N 62°00' W 006°46'0 0.0
2014-Sep-17 17:33N 62°00' W 006°46'0 0.0
2014-Sep-17 16:33N 62°00' W 006°46'0 0.0
2014-Sep-17 15:33N 62°00' W 006°46'0 0.0
2014-Sep-17 14:33N 62°00' W 006°46'0 0.0
2014-Sep-17 13:33N 62°00' W 006°46'0 0.0
2014-Sep-17 12:33N 62°00' W 006°46'0 0.0
2014-Sep-17 11:34N 62°00' W 006°46'0 0.0
2014-Sep-17 10:34N 62°00' W 006°46'0 0.0
2014-Sep-17 09:33N 62°00' W 006°46'0 0.0
2014-Sep-17 08:33N 62°00' W 006°46'0 0.0
2014-Sep-17 07:34N 62°00' W 006°46'0 0.0
2014-Sep-17 06:33N 62°00' W 006°46'0 0.0
2014-Sep-17 05:34N 62°00' W 006°46'0 0.0
2014-Sep-17 04:33N 62°00' W 006°46'0 0.0
2014-Sep-17 03:33N 62°00' W 006°46'0 0.0
2014-Sep-17 02:33N 62°00' W 006°46'0 0.0
2014-Sep-17 01:33N 62°00' W 006°46'0 0.0
2014-Sep-17 00:33N 62°00' W 006°46'0 0.0
2014-Sep-16 23:34N 62°00' W 006°46'0 0.0
2014-Sep-16 22:33N 62°00' W 006°46'0 0.0
2014-Sep-16 21:33N 62°00' W 006°46'0 0.0
2014-Sep-16 20:33N 62°00' W 006°46'0 0.0
2014-Sep-16 19:33N 62°00' W 006°46'0 0.0
2014-Sep-16 18:33N 62°00' W 006°46'0 0.0
2014-Sep-16 17:33N 62°00' W 006°46'0 0.0
2014-Sep-16 16:33N 62°00' W 006°46'0 0.0
2014-Sep-16 15:33N 62°00' W 006°46'0 0.0
2014-Sep-16 14:33N 62°00' W 006°46'0 0.0
2014-Sep-16 13:33N 62°00' W 006°46'0 0.1
2014-Sep-16 12:33N 62°00' W 006°46'0 0.0
2014-Sep-16 11:33N 62°00' W 006°46'0 0.1
2014-Sep-16 10:34N 62°00' W 006°46'0 0.0
2014-Sep-16 09:33N 62°00' W 006°46'0 0.0
2014-Sep-16 08:32N 62°00' W 006°46'0 0.0
2014-Sep-16 07:34N 62°00' W 006°46'0 0.0
2014-Sep-16 06:34N 62°00' W 006°46'0 0.0
2014-Sep-16 05:33N 62°00' W 006°46'0 0.0
2014-Sep-16 04:33N 62°00' W 006°46'0 0.0
2014-Sep-16 03:33N 62°00' W 006°46'0 0.0
2014-Sep-16 02:34N 62°00' W 006°46'0 0.0
2014-Sep-16 01:34N 62°00' W 006°46'0 0.0
2014-Sep-16 00:33N 62°00' W 006°46'0 0.0
2014-Sep-15 23:33N 62°00' W 006°46'0 0.0
2014-Sep-15 22:33N 62°00' W 006°46'0 0.0
2014-Sep-15 21:33N 62°00' W 006°46'0 0.0
2014-Sep-15 20:33N 62°00' W 006°46'0 0.0
2014-Sep-15 19:32N 62°00' W 006°46'0 0.0
2014-Sep-15 18:33N 62°00' W 006°46'0 0.0
2014-Sep-15 17:33N 62°00' W 006°46'0 0.0
2014-Sep-15 16:33N 62°00' W 006°46'0 0.0
2014-Sep-15 15:33N 62°00' W 006°46'0 0.0
2014-Sep-15 14:34N 62°00' W 006°46'0 0.0
2014-Sep-15 13:33N 62°00' W 006°46'0 0.0
2014-Sep-15 12:33N 62°00' W 006°46'0 0.0
2014-Sep-15 11:33N 62°00' W 006°46'0 0.0
2014-Sep-15 10:33N 62°00' W 006°46'0 0.0
2014-Sep-15 09:33N 62°00' W 006°46'0 0.0
2014-Sep-15 08:33N 62°00' W 006°46'0 0.0
2014-Sep-15 07:33N 62°00' W 006°46'0 0.0
2014-Sep-15 06:33N 62°00' W 006°46'0 0.0
2014-Sep-15 05:33N 62°00' W 006°46'0 0.0
2014-Sep-15 04:33N 62°00' W 006°46'0 0.0
2014-Sep-15 03:33N 62°00' W 006°46'0 0.0
2014-Sep-15 02:33N 62°00' W 006°46'0 0.0
2014-Sep-15 01:33N 62°00' W 006°46'3 3.1
2014-Sep-15 00:33N 61°58' W 006°42'8 7.9
2014-Sep-14 23:33N 61°54' W 006°28'9 8.5
2014-Sep-14 22:33N 61°49' W 006°13'9 8.6
2014-Sep-14 21:33N 61°43' W 005°59'29 8.9
2014-Sep-14 18:17N 61°26' W 005°11'1 1.3
2014-Sep-14 17:15N 61°25' W 005°08'4 0.1
2014-Sep-13 06:05N 61°22' W 005°13'2 0.5
2014-Sep-13 01:11N 61°24' W 005°16'2 1.6
2014-Sep-13 00:15N 61°23' W 005°17'4 0.5
2014-Sep-12 16:32N 61°24' W 005°10'1 1.4
2014-Sep-12 15:31N 61°23' W 005°12'4 1.4
2014-Sep-12 12:29N 61°19' W 005°16'7 5.2
2014-Sep-12 11:04N 61°27' W 005°16'4 2.5
2014-Sep-12 09:27N 61°23' W 005°17'4 3.9
2014-Sep-12 08:31N 61°19' W 005°20'3 2.9
2014-Sep-12 07:25N 61°21' W 005°14'5 4.4
2014-Sep-12 06:12N 61°26' W 005°13'15 4.8
2014-Sep-12 03:05N 61°37' W 005°33'3 1.4
2014-Sep-12 01:08N 61°35' W 005°30'0 0.7
2014-Sep-12 00:29N 61°35' W 005°29'5 4.8
2014-Sep-11 23:29N 61°39' W 005°35'2 1.9
2014-Sep-11 22:30N 61°38' W 005°38'5 4.8
2014-Sep-11 21:33N 61°36' W 005°47'6 1.4
2014-Sep-11 17:22N 61°37' W 005°35'3 2.9
2014-Sep-11 16:28N 61°38' W 005°39'1 0.9
2014-Sep-11 15:07N 61°38' W 005°41'0 0.8
2014-Sep-11 14:31N 61°38' W 005°42'1 0.9
2014-Sep-11 13:25N 61°37' W 005°44'1 1.4
2014-Sep-11 12:31N 61°37' W 005°47'2 0.4
2014-Sep-11 08:33N 61°36' W 005°44'16 1.0
2014-Sep-10 16:23N 61°31' W 005°12'  
Track history (hours):
 
Tides and Currents Weather Stations Pressure Air Temp Water Temp Dewpoint Dewpoint Depression Visibility Wind Speed Wind Dir Waves Ship Positions

Havbugvin

Last reported at 2014-Sep-19 00:32 UTC. Time now 2014-Sep-23 22:22 UTC.
Position N 61°17' W 006°30'.

Length 38 m.

Type: Fishing. MMSI: 231181000.

Date/timePositionNaut miles runAvg speedWind from/ knotsBaromVisibWave heightAir tempDewpointWater temp
2014-Sep-19 00:32N 61°17' W 006°30'9 8.7
2014-Sep-18 23:33N 61°25' W 006°36'11 3.5
2014-Sep-18 20:33N 61°35' W 006°41'10 9.6
2014-Sep-18 19:33N 61°45' W 006°37'10 9.7
2014-Sep-18 18:33N 61°54' W 006°39'7 7.0
2014-Sep-18 17:33N 62°00' W 006°46'0 0.0
2014-Sep-18 16:33N 62°00' W 006°46'0 0.0
2014-Sep-18 15:33N 62°00' W 006°46'0 0.0
2014-Sep-18 14:33N 62°00' W 006°46'0 0.0
2014-Sep-18 13:33N 62°00' W 006°46'0 0.0
2014-Sep-18 12:33N 62°00' W 006°46'0 0.0
2014-Sep-18 11:33N 62°00' W 006°46'0 0.0
2014-Sep-18 10:33N 62°00' W 006°46'0 0.0
2014-Sep-18 09:33N 62°00' W 006°46'0 0.0
2014-Sep-18 08:33N 62°00' W 006°46'0 0.0
2014-Sep-18 07:34N 62°00' W 006°46'0 0.0
2014-Sep-18 06:33N 62°00' W 006°46'0 0.0
2014-Sep-18 05:33N 62°00' W 006°46'0 0.0
2014-Sep-18 04:33N 62°00' W 006°46'0 0.0
2014-Sep-18 03:33N 62°00' W 006°46'0 0.0
2014-Sep-18 02:33N 62°00' W 006°46'0 0.0
2014-Sep-18 01:33N 62°00' W 006°46'0 0.0
2014-Sep-18 00:33N 62°00' W 006°46'0 0.0
2014-Sep-17 23:34N 62°00' W 006°46'0 0.0
2014-Sep-17 22:33N 62°00' W 006°46'0 0.0
2014-Sep-17 21:33N 62°00' W 006°46'0 0.0
2014-Sep-17 20:33N 62°00' W 006°46'0 0.0
2014-Sep-17 19:34N 62°00' W 006°46'0 0.0
2014-Sep-17 18:33N 62°00' W 006°46'0 0.0
2014-Sep-17 17:33N 62°00' W 006°46'0 0.0
2014-Sep-17 16:33N 62°00' W 006°46'0 0.0
2014-Sep-17 15:33N 62°00' W 006°46'0 0.0
2014-Sep-17 14:33N 62°00' W 006°46'0 0.0
2014-Sep-17 13:33N 62°00' W 006°46'0 0.0
2014-Sep-17 12:33N 62°00' W 006°46'0 0.0
2014-Sep-17 11:34N 62°00' W 006°46'0 0.0
2014-Sep-17 10:34N 62°00' W 006°46'0 0.0
2014-Sep-17 09:33N 62°00' W 006°46'0 0.0
2014-Sep-17 08:33N 62°00' W 006°46'0 0.0
2014-Sep-17 07:34N 62°00' W 006°46'0 0.0
2014-Sep-17 06:33N 62°00' W 006°46'0 0.0
2014-Sep-17 05:34N 62°00' W 006°46'0 0.0
2014-Sep-17 04:33N 62°00' W 006°46'0 0.0
2014-Sep-17 03:33N 62°00' W 006°46'0 0.0
2014-Sep-17 02:33N 62°00' W 006°46'0 0.0
2014-Sep-17 01:33N 62°00' W 006°46'0 0.0
2014-Sep-17 00:33N 62°00' W 006°46'0 0.0
2014-Sep-16 23:34N 62°00' W 006°46'0 0.0
2014-Sep-16 22:33N 62°00' W 006°46'0 0.0
2014-Sep-16 21:33N 62°00' W 006°46'0 0.0
2014-Sep-16 20:33N 62°00' W 006°46'0 0.0
2014-Sep-16 19:33N 62°00' W 006°46'0 0.0
2014-Sep-16 18:33N 62°00' W 006°46'0 0.0
2014-Sep-16 17:33N 62°00' W 006°46'0 0.0
2014-Sep-16 16:33N 62°00' W 006°46'0 0.0
2014-Sep-16 15:33N 62°00' W 006°46'0 0.0
2014-Sep-16 14:33N 62°00' W 006°46'0 0.0
2014-Sep-16 13:33N 62°00' W 006°46'0 0.1
2014-Sep-16 12:33N 62°00' W 006°46'0 0.0
2014-Sep-16 11:33N 62°00' W 006°46'0 0.1
2014-Sep-16 10:34N 62°00' W 006°46'0 0.0
2014-Sep-16 09:33N 62°00' W 006°46'0 0.0
2014-Sep-16 08:32N 62°00' W 006°46'0 0.0
2014-Sep-16 07:34N 62°00' W 006°46'0 0.0
2014-Sep-16 06:34N 62°00' W 006°46'0 0.0
2014-Sep-16 05:33N 62°00' W 006°46'0 0.0
2014-Sep-16 04:33N 62°00' W 006°46'0 0.0
2014-Sep-16 03:33N 62°00' W 006°46'0 0.0
2014-Sep-16 02:34N 62°00' W 006°46'0 0.0
2014-Sep-16 01:34N 62°00' W 006°46'0 0.0
2014-Sep-16 00:33N 62°00' W 006°46'0 0.0
2014-Sep-15 23:33N 62°00' W 006°46'0 0.0
2014-Sep-15 22:33N 62°00' W 006°46'0 0.0
2014-Sep-15 21:33N 62°00' W 006°46'0 0.0
2014-Sep-15 20:33N 62°00' W 006°46'0 0.0
2014-Sep-15 19:32N 62°00' W 006°46'0 0.0
2014-Sep-15 18:33N 62°00' W 006°46'0 0.0
2014-Sep-15 17:33N 62°00' W 006°46'0 0.0
2014-Sep-15 16:33N 62°00' W 006°46'0 0.0
2014-Sep-15 15:33N 62°00' W 006°46'0 0.0
2014-Sep-15 14:34N 62°00' W 006°46'0 0.0
2014-Sep-15 13:33N 62°00' W 006°46'0 0.0
2014-Sep-15 12:33N 62°00' W 006°46'0 0.0
2014-Sep-15 11:33N 62°00' W 006°46'0 0.0
2014-Sep-15 10:33N 62°00' W 006°46'0 0.0
2014-Sep-15 09:33N 62°00' W 006°46'0 0.0
2014-Sep-15 08:33N 62°00' W 006°46'0 0.0
2014-Sep-15 07:33N 62°00' W 006°46'0 0.0
2014-Sep-15 06:33N 62°00' W 006°46'0 0.0
2014-Sep-15 05:33N 62°00' W 006°46'0 0.0
2014-Sep-15 04:33N 62°00' W 006°46'0 0.0
2014-Sep-15 03:33N 62°00' W 006°46'0 0.0
2014-Sep-15 02:33N 62°00' W 006°46'0 0.0
2014-Sep-15 01:33N 62°00' W 006°46'3 3.1
2014-Sep-15 00:33N 61°58' W 006°42'8 7.9
2014-Sep-14 23:33N 61°54' W 006°28'9 8.5
2014-Sep-14 22:33N 61°49' W 006°13'9 8.6
2014-Sep-14 21:33N 61°43' W 005°59'29 8.9
2014-Sep-14 18:17N 61°26' W 005°11'1 1.3
2014-Sep-14 17:15N 61°25' W 005°08'4 0.1
2014-Sep-13 06:05N 61°22' W 005°13'2 0.5
2014-Sep-13 01:11N 61°24' W 005°16'2 1.6
2014-Sep-13 00:15N 61°23' W 005°17'4 0.5
2014-Sep-12 16:32N 61°24' W 005°10'1 1.4
2014-Sep-12 15:31N 61°23' W 005°12'4 1.4
2014-Sep-12 12:29N 61°19' W 005°16'7 5.2
2014-Sep-12 11:04N 61°27' W 005°16'4 2.5
2014-Sep-12 09:27N 61°23' W 005°17'4 3.9
2014-Sep-12 08:31N 61°19' W 005°20'3 2.9
2014-Sep-12 07:25N 61°21' W 005°14'5 4.4
2014-Sep-12 06:12N 61°26' W 005°13'15 4.8
2014-Sep-12 03:05N 61°37' W 005°33'3 1.4
2014-Sep-12 01:08N 61°35' W 005°30'0 0.7
2014-Sep-12 00:29N 61°35' W 005°29'5 4.8
2014-Sep-11 23:29N 61°39' W 005°35'2 1.9
2014-Sep-11 22:30N 61°38' W 005°38'5 4.8
2014-Sep-11 21:33N 61°36' W 005°47'6 1.4
2014-Sep-11 17:22N 61°37' W 005°35'3 2.9
2014-Sep-11 16:28N 61°38' W 005°39'1 0.9
2014-Sep-11 15:07N 61°38' W 005°41'0 0.8
2014-Sep-11 14:31N 61°38' W 005°42'1 0.9
2014-Sep-11 13:25N 61°37' W 005°44'1 1.4
2014-Sep-11 12:31N 61°37' W 005°47'2 0.4
2014-Sep-11 08:33N 61°36' W 005°44'16 1.0
2014-Sep-10 16:23N 61°31' W 005°12'  

Dump ship's entire track history